Main page
METAR-TAF:

METAR-TAF

Airports :

Riga International Airport

Riga, Latvia

latitude: 56-55N, longitude: 023-58E, elevation: 10 m

Current weather observation

The report was made 21 minutes ago, at 13:50 UTC
Wind 9 kt from the North/Northwest, varying between West and North
Temperature 22°C
Humidity 50%
Pressure 1014 hPa
Visibility 10 km or more
no clouds below 1500 m and no cumulonimbus

METAR: EVRA 211350Z 34009KT 280V010 CAVOK 22/11 Q1014 NOSIG

Time: 17:11 (14:11 UTC)

Forecast

The report was made 3 hours and 10 minutes ago, at 11:01 UTC
Forecast valid from 21 at 12 UTC to 22 at 12 UTC
Wind 8 kt from the West
Visibility 10 km or more
Scattered clouds at a height of 4500 ft
Temporary
from 22 at 00 UTC to 22 at 03 UTC
Visibility: 4000 m
mist,

TAF: EVRA 211101Z 2112/2212 27008KT 9999 SCT045 TEMPO 2200/2203 4000 BR

Weather observations and forecasts of more than 4000 airports (METAR and TAF reports).

The available stations are represented by yellow and red dots on the map.

Hover mouse over dot to see the name of the station.

Then click to see weather observations and forecasts.

To change the map : click on the green buttons with a black cross to zoom in, on the green button with a dash to zoom out, or on the green arrows for adjacent maps.


METAR-TAF: